sensor_id;sensor_type;location;lat;lon;timestamp;temperature;humidity
33580;DHT22;19909;43.644;-79.438;2022-08-11T00:01:25;22.30;53.10
33580;DHT22;19909;43.644;-79.438;2022-08-11T00:03:59;22.40;53.10
33580;DHT22;19909;43.644;-79.438;2022-08-11T00:06:36;22.40;53.10
33580;DHT22;19909;43.644;-79.438;2022-08-11T00:09:05;22.40;53.10
33580;DHT22;19909;43.644;-79.438;2022-08-11T00:11:42;22.40;53.20
33580;DHT22;19909;43.644;-79.438;2022-08-11T00:14:21;22.40;53.20
33580;DHT22;19909;43.644;-79.438;2022-08-11T00:17:03;22.40;53.20
33580;DHT22;19909;43.644;-79.438;2022-08-11T00:19:34;22.40;53.40
33580;DHT22;19909;43.644;-79.438;2022-08-11T00:22:02;22.40;53.30
33580;DHT22;19909;43.644;-79.438;2022-08-11T00:24:37;22.40;53.30
33580;DHT22;19909;43.644;-79.438;2022-08-11T00:27:04;22.40;53.30
33580;DHT22;19909;43.644;-79.438;2022-08-11T00:29:31;22.40;53.40
33580;DHT22;19909;43.644;-79.438;2022-08-11T00:32:00;22.40;53.30
33580;DHT22;19909;43.644;-79.438;2022-08-11T00:34:31;22.40;53.40
33580;DHT22;19909;43.644;-79.438;2022-08-11T00:37:09;22.40;53.40
33580;DHT22;19909;43.644;-79.438;2022-08-11T00:39:43;22.40;53.30
33580;DHT22;19909;43.644;-79.438;2022-08-11T00:45:20;22.40;53.20
33580;DHT22;19909;43.644;-79.438;2022-08-11T00:48:00;22.30;53.10
33580;DHT22;19909;43.644;-79.438;2022-08-11T01:02:16;22.30;53.20
33580;DHT22;19909;43.644;-79.438;2022-08-11T01:05:02;22.30;53.10
33580;DHT22;19909;43.644;-79.438;2022-08-11T01:07:55;22.30;53.10
33580;DHT22;19909;43.644;-79.438;2022-08-11T01:25:40;22.30;53.10
33580;DHT22;19909;43.644;-79.438;2022-08-11T01:37:29;22.30;53.10
33580;DHT22;19909;43.644;-79.438;2022-08-11T01:49:02;22.30;53.10
33580;DHT22;19909;43.644;-79.438;2022-08-11T01:54:31;22.30;53.10
33580;DHT22;19909;43.644;-79.438;2022-08-11T01:59:42;22.30;53.10
33580;DHT22;19909;43.644;-79.438;2022-08-11T02:08:13;22.30;53.00
33580;DHT22;19909;43.644;-79.438;2022-08-11T02:18:41;22.30;53.10
33580;DHT22;19909;43.644;-79.438;2022-08-11T02:21:43;22.40;53.00
33580;DHT22;19909;43.644;-79.438;2022-08-11T02:24:46;22.40;53.00
33580;DHT22;19909;43.644;-79.438;2022-08-11T02:27:33;22.40;52.90
33580;DHT22;19909;43.644;-79.438;2022-08-11T02:30:05;22.40;52.90
33580;DHT22;19909;43.644;-79.438;2022-08-11T02:33:04;22.40;52.90
33580;DHT22;19909;43.644;-79.438;2022-08-11T02:38:37;22.40;52.90
33580;DHT22;19909;43.644;-79.438;2022-08-11T02:41:20;22.40;52.90
33580;DHT22;19909;43.644;-79.438;2022-08-11T02:47:15;22.40;52.80
33580;DHT22;19909;43.644;-79.438;2022-08-11T03:01:19;22.40;52.80
33580;DHT22;19909;43.644;-79.438;2022-08-11T03:04:09;22.40;52.70
33580;DHT22;19909;43.644;-79.438;2022-08-11T03:06:40;22.40;52.70
33580;DHT22;19909;43.644;-79.438;2022-08-11T03:12:05;22.40;52.70
33580;DHT22;19909;43.644;-79.438;2022-08-11T03:14:58;22.40;52.60
33580;DHT22;19909;43.644;-79.438;2022-08-11T03:18:05;22.40;52.60
33580;DHT22;19909;43.644;-79.438;2022-08-11T03:29:15;22.40;52.60
33580;DHT22;19909;43.644;-79.438;2022-08-11T03:32:03;22.30;52.60
33580;DHT22;19909;43.644;-79.438;2022-08-11T03:34:32;22.30;52.60
33580;DHT22;19909;43.644;-79.438;2022-08-11T03:49:17;22.30;53.10
33580;DHT22;19909;43.644;-79.438;2022-08-11T04:00:10;22.30;52.60
33580;DHT22;19909;43.644;-79.438;2022-08-11T04:31:36;22.30;52.50
33580;DHT22;19909;43.644;-79.438;2022-08-11T04:43:04;22.30;52.40
33580;DHT22;19909;43.644;-79.438;2022-08-11T05:01:39;22.20;52.40
33580;DHT22;19909;43.644;-79.438;2022-08-11T05:04:40;22.30;53.00
33580;DHT22;19909;43.644;-79.438;2022-08-11T05:13:05;22.30;52.40
33580;DHT22;19909;43.644;-79.438;2022-08-11T05:15:52;22.20;52.30
33580;DHT22;19909;43.644;-79.438;2022-08-11T05:18:57;22.20;52.30
33580;DHT22;19909;43.644;-79.438;2022-08-11T05:21:46;22.20;52.30
33580;DHT22;19909;43.644;-79.438;2022-08-11T05:28:14;22.20;52.30
33580;DHT22;19909;43.644;-79.438;2022-08-11T05:31:03;22.20;52.30
33580;DHT22;19909;43.644;-79.438;2022-08-11T05:34:31;22.20;52.30
33580;DHT22;19909;43.644;-79.438;2022-08-11T05:37:32;22.20;52.30
33580;DHT22;19909;43.644;-79.438;2022-08-11T05:40:09;22.20;52.30
33580;DHT22;19909;43.644;-79.438;2022-08-11T05:42:57;22.20;52.30
33580;DHT22;19909;43.644;-79.438;2022-08-11T05:45:43;22.20;52.30
33580;DHT22;19909;43.644;-79.438;2022-08-11T05:48:35;22.20;52.30
33580;DHT22;19909;43.644;-79.438;2022-08-11T05:51:20;22.20;52.30
33580;DHT22;19909;43.644;-79.438;2022-08-11T05:54:07;22.20;52.30
33580;DHT22;19909;43.644;-79.438;2022-08-11T05:56:58;22.20;52.30
33580;DHT22;19909;43.644;-79.438;2022-08-11T05:59:26;22.20;52.30
33580;DHT22;19909;43.644;-79.438;2022-08-11T06:02:03;22.20;52.10
33580;DHT22;19909;43.644;-79.438;2022-08-11T06:04:30;22.20;52.10
33580;DHT22;19909;43.644;-79.438;2022-08-11T06:06:59;22.20;52.10
33580;DHT22;19909;43.644;-79.438;2022-08-11T06:09:30;22.20;52.20
33580;DHT22;19909;43.644;-79.438;2022-08-11T06:12:06;22.20;52.00
33580;DHT22;19909;43.644;-79.438;2022-08-11T06:14:42;22.20;52.10
33580;DHT22;19909;43.644;-79.438;2022-08-11T06:17:09;22.20;52.10
33580;DHT22;19909;43.644;-79.438;2022-08-11T06:19:41;22.20;52.00
33580;DHT22;19909;43.644;-79.438;2022-08-11T06:22:18;22.20;52.00
33580;DHT22;19909;43.644;-79.438;2022-08-11T06:24:55;22.20;52.00
33580;DHT22;19909;43.644;-79.438;2022-08-11T06:27:22;22.20;52.00
33580;DHT22;19909;43.644;-79.438;2022-08-11T06:29:51;22.20;52.00
33580;DHT22;19909;43.644;-79.438;2022-08-11T06:32:22;22.20;52.00
33580;DHT22;19909;43.644;-79.438;2022-08-11T06:43:23;22.10;51.90
33580;DHT22;19909;43.644;-79.438;2022-08-11T06:45:58;22.10;51.90
33580;DHT22;19909;43.644;-79.438;2022-08-11T06:48:31;22.10;51.90
33580;DHT22;19909;43.644;-79.438;2022-08-11T06:51:08;22.10;51.90
33580;DHT22;19909;43.644;-79.438;2022-08-11T06:56:10;22.10;51.90
33580;DHT22;19909;43.644;-79.438;2022-08-11T06:58:56;22.10;51.90
33580;DHT22;19909;43.644;-79.438;2022-08-11T07:07:44;22.10;51.90
33580;DHT22;19909;43.644;-79.438;2022-08-11T07:13:40;22.10;51.80
33580;DHT22;19909;43.644;-79.438;2022-08-11T07:16:27;22.10;51.90
33580;DHT22;19909;43.644;-79.438;2022-08-11T07:19:05;22.10;51.90
33580;DHT22;19909;43.644;-79.438;2022-08-11T07:21:50;22.10;51.90
33580;DHT22;19909;43.644;-79.438;2022-08-11T07:24:54;22.10;51.90
33580;DHT22;19909;43.644;-79.438;2022-08-11T07:27:48;22.10;51.80
33580;DHT22;19909;43.644;-79.438;2022-08-11T07:30:39;22.10;51.80
33580;DHT22;19909;43.644;-79.438;2022-08-11T07:33:05;22.10;51.80
33580;DHT22;19909;43.644;-79.438;2022-08-11T07:35:35;22.00;51.80
33580;DHT22;19909;43.644;-79.438;2022-08-11T07:38:06;22.00;51.70
33580;DHT22;19909;43.644;-79.438;2022-08-11T07:40:34;22.10;51.80
33580;DHT22;19909;43.644;-79.438;2022-08-11T07:43:03;22.10;51.70
33580;DHT22;19909;43.644;-79.438;2022-08-11T07:45:32;22.10;51.70
33580;DHT22;19909;43.644;-79.438;2022-08-11T07:48:17;22.00;51.70
33580;DHT22;19909;43.644;-79.438;2022-08-11T07:51:02;22.00;51.70
33580;DHT22;19909;43.644;-79.438;2022-08-11T07:53:48;22.00;51.70
33580;DHT22;19909;43.644;-79.438;2022-08-11T07:56:16;22.00;51.70
33580;DHT22;19909;43.644;-79.438;2022-08-11T07:58:44;22.00;51.70
33580;DHT22;19909;43.644;-79.438;2022-08-11T08:01:30;22.00;51.70
33580;DHT22;19909;43.644;-79.438;2022-08-11T08:04:16;22.00;51.70
33580;DHT22;19909;43.644;-79.438;2022-08-11T08:07:08;22.00;51.70
33580;DHT22;19909;43.644;-79.438;2022-08-11T08:09:53;22.00;51.70
33580;DHT22;19909;43.644;-79.438;2022-08-11T08:12:39;22.00;51.70
33580;DHT22;19909;43.644;-79.438;2022-08-11T08:15:24;22.00;51.60
33580;DHT22;19909;43.644;-79.438;2022-08-11T08:18:10;22.00;51.60
33580;DHT22;19909;43.644;-79.438;2022-08-11T08:20:45;22.00;51.70
33580;DHT22;19909;43.644;-79.438;2022-08-11T08:23:12;22.00;51.60
33580;DHT22;19909;43.644;-79.438;2022-08-11T08:25:40;22.00;51.70
33580;DHT22;19909;43.644;-79.438;2022-08-11T08:28:10;22.00;51.70
33580;DHT22;19909;43.644;-79.438;2022-08-11T08:30:40;22.00;51.60
33580;DHT22;19909;43.644;-79.438;2022-08-11T08:33:17;22.00;51.60
33580;DHT22;19909;43.644;-79.438;2022-08-11T08:35:45;22.00;51.60
33580;DHT22;19909;43.644;-79.438;2022-08-11T08:38:12;22.00;51.60
33580;DHT22;19909;43.644;-79.438;2022-08-11T08:40:42;22.00;51.60
33580;DHT22;19909;43.644;-79.438;2022-08-11T08:43:12;22.00;51.60
33580;DHT22;19909;43.644;-79.438;2022-08-11T08:45:41;22.00;51.60
33580;DHT22;19909;43.644;-79.438;2022-08-11T08:48:15;22.00;51.60
33580;DHT22;19909;43.644;-79.438;2022-08-11T08:50:47;22.00;51.50
33580;DHT22;19909;43.644;-79.438;2022-08-11T08:53:35;22.00;51.50
33580;DHT22;19909;43.644;-79.438;2022-08-11T08:56:04;22.00;51.60
33580;DHT22;19909;43.644;-79.438;2022-08-11T08:58:35;22.00;51.50
33580;DHT22;19909;43.644;-79.438;2022-08-11T09:01:02;22.00;51.50
33580;DHT22;19909;43.644;-79.438;2022-08-11T09:03:29;22.00;51.50
33580;DHT22;19909;43.644;-79.438;2022-08-11T09:05:57;21.90;51.40
33580;DHT22;19909;43.644;-79.438;2022-08-11T09:08:24;22.00;51.50
33580;DHT22;19909;43.644;-79.438;2022-08-11T09:10:51;22.00;51.50
33580;DHT22;19909;43.644;-79.438;2022-08-11T09:13:39;22.00;51.50
33580;DHT22;19909;43.644;-79.438;2022-08-11T09:16:09;22.00;51.50
33580;DHT22;19909;43.644;-79.438;2022-08-11T09:18:37;22.00;51.40
33580;DHT22;19909;43.644;-79.438;2022-08-11T09:21:05;22.00;51.50
33580;DHT22;19909;43.644;-79.438;2022-08-11T09:23:32;21.90;51.30
33580;DHT22;19909;43.644;-79.438;2022-08-11T09:26:18;21.90;51.40
33580;DHT22;19909;43.644;-79.438;2022-08-11T09:29:03;21.90;51.30
33580;DHT22;19909;43.644;-79.438;2022-08-11T09:31:32;21.90;51.30
33580;DHT22;19909;43.644;-79.438;2022-08-11T09:33:59;21.90;51.30
33580;DHT22;19909;43.644;-79.438;2022-08-11T09:36:26;21.90;51.30
33580;DHT22;19909;43.644;-79.438;2022-08-11T09:39:12;21.90;51.30
33580;DHT22;19909;43.644;-79.438;2022-08-11T09:41:59;21.90;51.30
33580;DHT22;19909;43.644;-79.438;2022-08-11T09:44:27;21.90;51.30
33580;DHT22;19909;43.644;-79.438;2022-08-11T09:47:36;21.90;51.30
33580;DHT22;19909;43.644;-79.438;2022-08-11T09:50:00;21.90;51.20
33580;DHT22;19909;43.644;-79.438;2022-08-11T09:52:29;21.90;51.20
33580;DHT22;19909;43.644;-79.438;2022-08-11T09:54:57;21.90;51.20
33580;DHT22;19909;43.644;-79.438;2022-08-11T09:57:24;21.90;51.20
33580;DHT22;19909;43.644;-79.438;2022-08-11T10:00:11;21.90;51.20
33580;DHT22;19909;43.644;-79.438;2022-08-11T10:02:45;21.80;51.10
33580;DHT22;19909;43.644;-79.438;2022-08-11T10:05:14;21.90;51.30
33580;DHT22;19909;43.644;-79.438;2022-08-11T10:08:01;21.90;51.20
33580;DHT22;19909;43.644;-79.438;2022-08-11T10:10:28;21.80;51.10
33580;DHT22;19909;43.644;-79.438;2022-08-11T10:13:02;21.80;51.10
33580;DHT22;19909;43.644;-79.438;2022-08-11T10:15:30;21.90;51.10
33580;DHT22;19909;43.644;-79.438;2022-08-11T10:18:06;21.80;51.10
33580;DHT22;19909;43.644;-79.438;2022-08-11T10:20:57;21.90;51.10
33580;DHT22;19909;43.644;-79.438;2022-08-11T10:23:25;21.80;51.10
33580;DHT22;19909;43.644;-79.438;2022-08-11T10:26:12;21.80;51.10
33580;DHT22;19909;43.644;-79.438;2022-08-11T10:28:57;21.80;51.10
33580;DHT22;19909;43.644;-79.438;2022-08-11T10:31:25;21.80;51.10
33580;DHT22;19909;43.644;-79.438;2022-08-11T10:34:10;21.80;51.10
33580;DHT22;19909;43.644;-79.438;2022-08-11T10:36:41;21.80;51.10
33580;DHT22;19909;43.644;-79.438;2022-08-11T10:39:19;21.80;51.10
33580;DHT22;19909;43.644;-79.438;2022-08-11T10:41:47;21.80;51.00
33580;DHT22;19909;43.644;-79.438;2022-08-11T10:44:37;21.80;51.10
33580;DHT22;19909;43.644;-79.438;2022-08-11T10:47:04;21.80;51.00
33580;DHT22;19909;43.644;-79.438;2022-08-11T10:49:51;21.80;51.00
33580;DHT22;19909;43.644;-79.438;2022-08-11T10:52:37;21.80;51.00
33580;DHT22;19909;43.644;-79.438;2022-08-11T10:55:23;21.80;51.00
33580;DHT22;19909;43.644;-79.438;2022-08-11T10:58:10;21.80;51.00
33580;DHT22;19909;43.644;-79.438;2022-08-11T11:00:54;21.70;51.00
33580;DHT22;19909;43.644;-79.438;2022-08-11T11:03:29;21.80;51.00
33580;DHT22;19909;43.644;-79.438;2022-08-11T11:06:17;21.80;51.00
33580;DHT22;19909;43.644;-79.438;2022-08-11T11:11:44;21.70;51.00
33580;DHT22;19909;43.644;-79.438;2022-08-11T11:14:32;21.80;51.10
33580;DHT22;19909;43.644;-79.438;2022-08-11T11:17:26;21.70;51.00
33580;DHT22;19909;43.644;-79.438;2022-08-11T11:20:17;21.70;51.10
33580;DHT22;19909;43.644;-79.438;2022-08-11T11:22:44;21.70;51.00
33580;DHT22;19909;43.644;-79.438;2022-08-11T11:31:33;21.70;51.00
33580;DHT22;19909;43.644;-79.438;2022-08-11T11:36:51;21.70;51.00
33580;DHT22;19909;43.644;-79.438;2022-08-11T11:39:25;21.70;51.00
33580;DHT22;19909;43.644;-79.438;2022-08-11T11:42:02;21.70;50.90
33580;DHT22;19909;43.644;-79.438;2022-08-11T11:44:29;21.70;51.00
33580;DHT22;19909;43.644;-79.438;2022-08-11T11:46:56;21.70;51.00
33580;DHT22;19909;43.644;-79.438;2022-08-11T11:49:28;21.70;50.90
33580;DHT22;19909;43.644;-79.438;2022-08-11T11:51:58;21.70;50.90
33580;DHT22;19909;43.644;-79.438;2022-08-11T11:54:30;21.70;50.90
33580;DHT22;19909;43.644;-79.438;2022-08-11T11:56:58;21.60;50.90
33580;DHT22;19909;43.644;-79.438;2022-08-11T11:59:47;21.70;50.90
33580;DHT22;19909;43.644;-79.438;2022-08-11T12:02:32;21.70;50.90
33580;DHT22;19909;43.644;-79.438;2022-08-11T12:05:00;21.70;51.00
33580;DHT22;19909;43.644;-79.438;2022-08-11T12:07:28;21.70;50.90
33580;DHT22;19909;43.644;-79.438;2022-08-11T12:10:14;21.70;50.90
33580;DHT22;19909;43.644;-79.438;2022-08-11T12:12:42;21.60;50.90
33580;DHT22;19909;43.644;-79.438;2022-08-11T12:15:27;21.60;50.90
33580;DHT22;19909;43.644;-79.438;2022-08-11T12:17:54;21.70;50.90
33580;DHT22;19909;43.644;-79.438;2022-08-11T12:20:21;21.70;50.90
33580;DHT22;19909;43.644;-79.438;2022-08-11T12:22:49;21.60;50.90
33580;DHT22;19909;43.644;-79.438;2022-08-11T12:25:34;21.60;50.90
33580;DHT22;19909;43.644;-79.438;2022-08-11T12:28:20;21.60;50.90
33580;DHT22;19909;43.644;-79.438;2022-08-11T12:30:50;21.60;50.90
33580;DHT22;19909;43.644;-79.438;2022-08-11T12:33:18;21.70;51.00
33580;DHT22;19909;43.644;-79.438;2022-08-11T12:35:47;21.60;51.00
33580;DHT22;19909;43.644;-79.438;2022-08-11T12:38:18;21.60;51.00
33580;DHT22;19909;43.644;-79.438;2022-08-11T12:40:46;21.60;51.10
33580;DHT22;19909;43.644;-79.438;2022-08-11T12:43:32;21.60;51.60
33580;DHT22;19909;43.644;-79.438;2022-08-11T12:46:24;21.60;51.10
33580;DHT22;19909;43.644;-79.438;2022-08-11T12:48:57;21.70;51.20
33580;DHT22;19909;43.644;-79.438;2022-08-11T12:51:46;21.60;51.30
33580;DHT22;19909;43.644;-79.438;2022-08-11T12:55:12;21.60;51.20
33580;DHT22;19909;43.644;-79.438;2022-08-11T13:00:15;21.60;51.30
33580;DHT22;19909;43.644;-79.438;2022-08-11T13:03:01;21.60;51.40
33580;DHT22;19909;43.644;-79.438;2022-08-11T13:05:47;21.60;51.40
33580;DHT22;19909;43.644;-79.438;2022-08-11T13:08:17;21.60;51.40
33580;DHT22;19909;43.644;-79.438;2022-08-11T13:10:45;21.60;51.50
33580;DHT22;19909;43.644;-79.438;2022-08-11T13:13:31;21.60;51.50
33580;DHT22;19909;43.644;-79.438;2022-08-11T13:15:59;21.60;51.40
33580;DHT22;19909;43.644;-79.438;2022-08-11T13:18:26;21.60;51.50
33580;DHT22;19909;43.644;-79.438;2022-08-11T13:20:54;21.60;51.40
33580;DHT22;19909;43.644;-79.438;2022-08-11T13:23:23;21.60;51.40
33580;DHT22;19909;43.644;-79.438;2022-08-11T13:25:52;21.60;51.40
33580;DHT22;19909;43.644;-79.438;2022-08-11T13:28:21;21.60;51.40
33580;DHT22;19909;43.644;-79.438;2022-08-11T13:30:51;21.60;51.40
33580;DHT22;19909;43.644;-79.438;2022-08-11T13:33:47;21.60;51.40
33580;DHT22;19909;43.644;-79.438;2022-08-11T13:36:22;21.60;51.40
33580;DHT22;19909;43.644;-79.438;2022-08-11T13:38:54;21.60;51.40
33580;DHT22;19909;43.644;-79.438;2022-08-11T13:41:21;21.60;51.40
33580;DHT22;19909;43.644;-79.438;2022-08-11T13:44:07;21.60;51.40
33580;DHT22;19909;43.644;-79.438;2022-08-11T13:46:34;21.60;51.40
33580;DHT22;19909;43.644;-79.438;2022-08-11T13:49:01;21.50;51.40
33580;DHT22;19909;43.644;-79.438;2022-08-11T13:51:28;21.60;51.40
33580;DHT22;19909;43.644;-79.438;2022-08-11T13:54:11;21.60;51.40
33580;DHT22;19909;43.644;-79.438;2022-08-11T13:56:44;21.60;51.40
33580;DHT22;19909;43.644;-79.438;2022-08-11T13:59:13;21.60;51.40
33580;DHT22;19909;43.644;-79.438;2022-08-11T14:01:47;21.60;51.30
33580;DHT22;19909;43.644;-79.438;2022-08-11T14:04:27;21.60;51.30
33580;DHT22;19909;43.644;-79.438;2022-08-11T14:06:56;21.60;51.30
33580;DHT22;19909;43.644;-79.438;2022-08-11T14:09:28;21.60;51.30
33580;DHT22;19909;43.644;-79.438;2022-08-11T14:11:59;21.60;51.30
33580;DHT22;19909;43.644;-79.438;2022-08-11T14:15:08;21.60;51.30
33580;DHT22;19909;43.644;-79.438;2022-08-11T14:17:37;21.60;51.40
33580;DHT22;19909;43.644;-79.438;2022-08-11T14:20:08;21.60;51.90
33580;DHT22;19909;43.644;-79.438;2022-08-11T14:22:39;21.60;51.30
33580;DHT22;19909;43.644;-79.438;2022-08-11T14:25:07;21.60;51.80
33580;DHT22;19909;43.644;-79.438;2022-08-11T14:27:34;21.60;51.30
33580;DHT22;19909;43.644;-79.438;2022-08-11T14:30:01;21.60;51.30
33580;DHT22;19909;43.644;-79.438;2022-08-11T14:32:28;21.60;51.30
33580;DHT22;19909;43.644;-79.438;2022-08-11T14:34:55;21.60;51.30
33580;DHT22;19909;43.644;-79.438;2022-08-11T14:37:23;21.60;51.30
33580;DHT22;19909;43.644;-79.438;2022-08-11T14:39:57;21.60;51.30
33580;DHT22;19909;43.644;-79.438;2022-08-11T14:42:24;21.60;51.20
33580;DHT22;19909;43.644;-79.438;2022-08-11T14:45:12;21.60;51.30
33580;DHT22;19909;43.644;-79.438;2022-08-11T14:48:03;21.60;51.30
33580;DHT22;19909;43.644;-79.438;2022-08-11T14:50:31;21.60;51.30
33580;DHT22;19909;43.644;-79.438;2022-08-11T14:53:12;21.60;51.30
33580;DHT22;19909;43.644;-79.438;2022-08-11T14:55:41;21.60;51.30
33580;DHT22;19909;43.644;-79.438;2022-08-11T14:58:29;21.60;51.90
33580;DHT22;19909;43.644;-79.438;2022-08-11T15:00:57;21.60;51.40
33580;DHT22;19909;43.644;-79.438;2022-08-11T15:03:27;21.60;51.40
33580;DHT22;19909;43.644;-79.438;2022-08-11T15:05:58;21.60;51.30
33580;DHT22;19909;43.644;-79.438;2022-08-11T15:08:29;21.60;51.30
33580;DHT22;19909;43.644;-79.438;2022-08-11T15:11:16;21.50;51.20
33580;DHT22;19909;43.644;-79.438;2022-08-11T15:14:03;21.50;51.30
33580;DHT22;19909;43.644;-79.438;2022-08-11T15:16:30;21.60;51.30
33580;DHT22;19909;43.644;-79.438;2022-08-11T15:19:17;21.60;51.40
33580;DHT22;19909;43.644;-79.438;2022-08-11T15:21:47;21.60;51.40
33580;DHT22;19909;43.644;-79.438;2022-08-11T15:24:32;21.50;51.30
33580;DHT22;19909;43.644;-79.438;2022-08-11T15:27:04;21.60;51.40
33580;DHT22;19909;43.644;-79.438;2022-08-11T15:29:50;21.60;51.40
33580;DHT22;19909;43.644;-79.438;2022-08-11T15:32:38;21.60;51.40
33580;DHT22;19909;43.644;-79.438;2022-08-11T15:35:24;21.50;51.40
33580;DHT22;19909;43.644;-79.438;2022-08-11T15:38:11;21.50;51.40
33580;DHT22;19909;43.644;-79.438;2022-08-11T15:40:41;21.50;51.50
33580;DHT22;19909;43.644;-79.438;2022-08-11T15:43:36;21.50;51.50
33580;DHT22;19909;43.644;-79.438;2022-08-11T15:46:48;21.50;51.40
33580;DHT22;19909;43.644;-79.438;2022-08-11T15:49:22;21.50;51.50
33580;DHT22;19909;43.644;-79.438;2022-08-11T15:52:13;21.50;51.50
33580;DHT22;19909;43.644;-79.438;2022-08-11T15:54:41;21.50;51.50
33580;DHT22;19909;43.644;-79.438;2022-08-11T15:57:09;21.50;51.50
33580;DHT22;19909;43.644;-79.438;2022-08-11T16:00:02;21.50;51.50
33580;DHT22;19909;43.644;-79.438;2022-08-11T16:02:48;21.50;51.50
33580;DHT22;19909;43.644;-79.438;2022-08-11T16:05:16;21.60;51.50
33580;DHT22;19909;43.644;-79.438;2022-08-11T16:07:44;21.50;51.50
33580;DHT22;19909;43.644;-79.438;2022-08-11T16:10:15;21.50;51.40
33580;DHT22;19909;43.644;-79.438;2022-08-11T16:12:48;21.50;51.50
33580;DHT22;19909;43.644;-79.438;2022-08-11T16:15:51;21.50;51.50
33580;DHT22;19909;43.644;-79.438;2022-08-11T16:18:56;21.50;51.50
33580;DHT22;19909;43.644;-79.438;2022-08-11T16:21:33;21.50;51.50
33580;DHT22;19909;43.644;-79.438;2022-08-11T16:24:05;21.50;51.50
33580;DHT22;19909;43.644;-79.438;2022-08-11T16:26:32;21.50;51.50
33580;DHT22;19909;43.644;-79.438;2022-08-11T16:29:02;21.40;51.50
33580;DHT22;19909;43.644;-79.438;2022-08-11T16:31:29;21.50;51.50
33580;DHT22;19909;43.644;-79.438;2022-08-11T16:33:57;21.50;51.50
33580;DHT22;19909;43.644;-79.438;2022-08-11T16:36:24;21.50;51.50
33580;DHT22;19909;43.644;-79.438;2022-08-11T16:39:11;21.50;51.50
33580;DHT22;19909;43.644;-79.438;2022-08-11T16:41:39;21.50;51.50
33580;DHT22;19909;43.644;-79.438;2022-08-11T16:44:26;21.50;51.40
33580;DHT22;19909;43.644;-79.438;2022-08-11T16:47:15;21.50;51.50
33580;DHT22;19909;43.644;-79.438;2022-08-11T16:49:51;21.50;51.50
33580;DHT22;19909;43.644;-79.438;2022-08-11T16:52:19;21.50;51.50
33580;DHT22;19909;43.644;-79.438;2022-08-11T16:54:45;21.50;51.60
33580;DHT22;19909;43.644;-79.438;2022-08-11T16:57:23;21.50;51.50
33580;DHT22;19909;43.644;-79.438;2022-08-11T17:00:10;21.50;51.60
33580;DHT22;19909;43.644;-79.438;2022-08-11T17:02:57;21.50;51.50
33580;DHT22;19909;43.644;-79.438;2022-08-11T17:05:49;21.50;51.60
33580;DHT22;19909;43.644;-79.438;2022-08-11T17:08:41;21.50;51.60
33580;DHT22;19909;43.644;-79.438;2022-08-11T17:11:30;21.50;51.60
33580;DHT22;19909;43.644;-79.438;2022-08-11T17:14:28;21.50;51.60
33580;DHT22;19909;43.644;-79.438;2022-08-11T17:16:58;21.50;51.50
33580;DHT22;19909;43.644;-79.438;2022-08-11T17:19:28;21.50;51.60
33580;DHT22;19909;43.644;-79.438;2022-08-11T17:21:57;21.50;51.50
33580;DHT22;19909;43.644;-79.438;2022-08-11T17:24:44;21.50;51.60
33580;DHT22;19909;43.644;-79.438;2022-08-11T17:27:14;21.50;51.50
33580;DHT22;19909;43.644;-79.438;2022-08-11T17:29:51;21.50;51.60
33580;DHT22;19909;43.644;-79.438;2022-08-11T17:32:39;21.50;51.50
33580;DHT22;19909;43.644;-79.438;2022-08-11T17:35:31;21.50;51.60
33580;DHT22;19909;43.644;-79.438;2022-08-11T17:38:08;21.50;51.60
33580;DHT22;19909;43.644;-79.438;2022-08-11T17:40:37;21.50;51.70
33580;DHT22;19909;43.644;-79.438;2022-08-11T17:43:06;21.50;52.00
33580;DHT22;19909;43.644;-79.438;2022-08-11T17:45:52;21.50;51.60
33580;DHT22;19909;43.644;-79.438;2022-08-11T17:48:40;21.50;51.70
33580;DHT22;19909;43.644;-79.438;2022-08-11T17:51:16;21.50;51.60
33580;DHT22;19909;43.644;-79.438;2022-08-11T17:54:04;21.50;51.60
33580;DHT22;19909;43.644;-79.438;2022-08-11T17:56:51;21.50;51.70
33580;DHT22;19909;43.644;-79.438;2022-08-11T17:59:38;21.50;51.60
33580;DHT22;19909;43.644;-79.438;2022-08-11T18:05:12;21.50;51.60
33580;DHT22;19909;43.644;-79.438;2022-08-11T18:07:42;21.40;51.50
33580;DHT22;19909;43.644;-79.438;2022-08-11T18:10:30;21.50;51.70
33580;DHT22;19909;43.644;-79.438;2022-08-11T18:13:28;21.50;51.50
33580;DHT22;19909;43.644;-79.438;2022-08-11T18:16:13;21.40;51.50
33580;DHT22;19909;43.644;-79.438;2022-08-11T18:18:58;21.50;51.60
33580;DHT22;19909;43.644;-79.438;2022-08-11T18:21:44;21.50;51.60
33580;DHT22;19909;43.644;-79.438;2022-08-11T18:24:34;21.40;51.60
33580;DHT22;19909;43.644;-79.438;2022-08-11T18:27:22;21.50;51.60
33580;DHT22;19909;43.644;-79.438;2022-08-11T18:30:09;21.40;51.50
33580;DHT22;19909;43.644;-79.438;2022-08-11T18:32:59;21.50;51.60
33580;DHT22;19909;43.644;-79.438;2022-08-11T18:35:52;21.50;51.60
33580;DHT22;19909;43.644;-79.438;2022-08-11T18:38:40;21.50;51.50
33580;DHT22;19909;43.644;-79.438;2022-08-11T18:41:28;21.50;51.50
33580;DHT22;19909;43.644;-79.438;2022-08-11T18:44:17;21.50;51.60
33580;DHT22;19909;43.644;-79.438;2022-08-11T18:47:09;21.50;51.90
33580;DHT22;19909;43.644;-79.438;2022-08-11T18:49:54;21.50;51.60
33580;DHT22;19909;43.644;-79.438;2022-08-11T18:52:45;21.50;51.60
33580;DHT22;19909;43.644;-79.438;2022-08-11T18:55:31;21.50;51.60
33580;DHT22;19909;43.644;-79.438;2022-08-11T18:58:22;21.50;51.70
33580;DHT22;19909;43.644;-79.438;2022-08-11T19:01:12;21.50;51.60
33580;DHT22;19909;43.644;-79.438;2022-08-11T19:04:01;21.40;51.60
33580;DHT22;19909;43.644;-79.438;2022-08-11T19:06:47;21.50;51.60
33580;DHT22;19909;43.644;-79.438;2022-08-11T19:09:35;21.50;51.60
33580;DHT22;19909;43.644;-79.438;2022-08-11T19:12:23;21.50;51.60
33580;DHT22;19909;43.644;-79.438;2022-08-11T19:15:09;21.50;51.70
33580;DHT22;19909;43.644;-79.438;2022-08-11T19:17:54;21.50;51.60
33580;DHT22;19909;43.644;-79.438;2022-08-11T19:20:42;21.50;51.60
33580;DHT22;19909;43.644;-79.438;2022-08-11T19:23:35;21.50;51.70
33580;DHT22;19909;43.644;-79.438;2022-08-11T19:26:22;21.50;51.60
33580;DHT22;19909;43.644;-79.438;2022-08-11T19:29:08;21.50;51.60
33580;DHT22;19909;43.644;-79.438;2022-08-11T19:31:55;21.50;51.70
33580;DHT22;19909;43.644;-79.438;2022-08-11T19:34:41;21.50;51.70
33580;DHT22;19909;43.644;-79.438;2022-08-11T19:37:27;21.50;51.60
33580;DHT22;19909;43.644;-79.438;2022-08-11T19:40:13;21.50;51.70
33580;DHT22;19909;43.644;-79.438;2022-08-11T19:43:00;21.50;51.70
33580;DHT22;19909;43.644;-79.438;2022-08-11T19:45:47;21.50;51.60
33580;DHT22;19909;43.644;-79.438;2022-08-11T19:48:34;21.50;51.70
33580;DHT22;19909;43.644;-79.438;2022-08-11T19:51:20;21.40;51.60